Accueil
METAR-TAF:

METAR-TAF

Aéroports :

Aéroport de Londres-City

Londres, Angleterre

latitude: 51-30N, longitude: 000-03E, altitude: 5 m

Observation

Le bulletin a été fait il y a 22 minutes, à 06:50 UTC
Vent 8 kt de ouest/nord-ouest
Température 11°C
Humidité 62%
Pression 1025 hPa
Visibilité 10 km ou plus

METAR: EGLC 140650Z AUTO 29008KT 9999 NCD 11/04 Q1025

Heure: 08:12 (07:12 UTC)

Prévision

Le bulletin a été fait il y a 2 heures et 17 minutes, à 04:55 UTC
Prévision valable du 14 à 06 UTC au 14 à 15 UTC
Vent 9 kt de ouest
Visibilité 10 km ou plus
Quelques nuages à une hauteur de 4000 ft

TAF: EGLC 140455Z 1406/1415 28009KT 9999 FEW040

Observations et prévisions météorologiques de plus de 4000 aéroports (messages METAR et TAF).

Les stations disponibles sont représentées par des disques jaunes et rouges sur la carte.

Passer la souris dessus pour voir le nom de la station.

Cliquer dessus pour voir les observations et prévisions météorologiques.

Pour changer de carte: cliquez sur les boutons verts avec une croix noire pour zoomer, sur le bouton vert avec un tiret pour effectuer un zoom arrière, ou sur les flèches vertes pour les cartes adjacentes.


METAR-TAF: